PYRO2: Pryor Creek

Data processed at Mon Apr 24 2017 21:42


All information presented herein is the property of the government of the United States of America and may be revised or deleted at any time without prior notice.
Dissemination of this information without the expressed written consent of the Public Affairs Office, Tulsa District U.S. Army Corps of Engineers is strictly prohibited.
These data are gathered electronically and, as presented, have not undergone any form of quality control. These data are not guaranteed to be valid or correct.
Go to home page.
Go to station list.
Go to station map.

Downstream station:


Previous Day
Next Day
Current Day
    
SHEF ID:       PYRO2     Pryor Creek
STATION TYPE:  

               PRECIP     STAGE  RIV-FLOW   VOLTAGE  BAT-LOAD
                   in        ft       cfs      volt      volt
              Ccp-Rev   Ccp-Rev   Ccp-Rev   Ccp-Rev   Ccp-Rev
(US/Central)
04/24 00:00      0.00     11.63       693     12.97     12.81
04/24 01:00      0.00     11.35       638     12.97     12.81
04/24 02:00      0.00     11.08       586     12.97     12.73
04/24 03:00      0.00     10.84       539     12.97     12.73
04/24 04:00      0.00     10.68       508     12.89     12.73
04/24 05:00      0.00     10.51       475     12.89     12.73
04/24 06:00      0.00     10.36       446     12.89     12.73
04/24 07:00      0.00     10.23       420     12.97     12.65
04/24 08:00      0.00     10.14       403     13.29     12.97
04/24 09:00      0.00     10.00       375     13.68     13.84
04/24 10:00      0.00      9.90       356     14.32     13.68
04/24 11:00      0.00      9.85       349     13.68     13.76
04/24 12:00      0.00      9.71       336     13.68     14.24
04/24 13:00      0.00      9.60       326     13.68     13.92
04/24 14:00      0.00      9.54       321     14.00     14.16
04/24 15:00      0.00      9.42       310     14.00     13.84
04/24 16:00      0.00      9.38       306     14.16     13.44
04/24 17:00      0.00      9.31       300     14.08     13.44
04/24 18:00      0.00      9.25       294     13.76     13.84
04/24 19:00      0.00      9.15       285     13.68     13.37
04/24 20:00      0.00      9.09       280     13.21     13.21
04/24 21:00      ----      ----      ----     13.05     12.97
04/24 22:00      ----      ----      ----      ----      ----
04/24 23:00      ----      ----      ----      ----      ----